sensor_id;sensor_type;location;lat;lon;timestamp;temperature;humidity
24676;DHT22;12799;53.690;10.114;2022-12-18T01:45:27;-5.20;99.90
24676;DHT22;12799;53.690;10.114;2022-12-18T01:47:48;-5.20;99.90
24676;DHT22;12799;53.690;10.114;2022-12-18T01:50:21;-5.20;99.90
24676;DHT22;12799;53.690;10.114;2022-12-18T01:52:25;-5.20;99.90
24676;DHT22;12799;53.690;10.114;2022-12-18T01:54:28;-5.20;99.90
24676;DHT22;12799;53.690;10.114;2022-12-18T01:56:30;-5.10;99.90
24676;DHT22;12799;53.690;10.114;2022-12-18T01:58:37;-5.10;99.90
24676;DHT22;12799;53.690;10.114;2022-12-18T02:00:43;-5.20;99.90
24676;DHT22;12799;53.690;10.114;2022-12-18T02:02:46;-5.10;99.90
24676;DHT22;12799;53.690;10.114;2022-12-18T02:04:48;-5.30;99.90
24676;DHT22;12799;53.690;10.114;2022-12-18T02:06:52;-5.30;99.90
24676;DHT22;12799;53.690;10.114;2022-12-18T02:09:03;-5.30;99.90
24676;DHT22;12799;53.690;10.114;2022-12-18T02:11:08;-5.30;99.90
24676;DHT22;12799;53.690;10.114;2022-12-18T02:13:17;-5.30;99.90
24676;DHT22;12799;53.690;10.114;2022-12-18T02:15:26;-5.30;99.90
24676;DHT22;12799;53.690;10.114;2022-12-18T02:17:35;-5.30;99.90
24676;DHT22;12799;53.690;10.114;2022-12-18T02:19:46;-5.30;99.90
24676;DHT22;12799;53.690;10.114;2022-12-18T02:21:57;-5.30;99.90
24676;DHT22;12799;53.690;10.114;2022-12-18T02:24:16;-5.30;99.90
24676;DHT22;12799;53.690;10.114;2022-12-18T02:26:23;-5.30;99.90
24676;DHT22;12799;53.690;10.114;2022-12-18T02:28:30;-5.30;99.90
24676;DHT22;12799;53.690;10.114;2022-12-18T02:30:34;-5.30;99.90
24676;DHT22;12799;53.690;10.114;2022-12-18T02:32:39;-5.40;99.90
24676;DHT22;12799;53.690;10.114;2022-12-18T02:34:43;-5.30;99.90
24676;DHT22;12799;53.690;10.114;2022-12-18T02:36:46;-5.30;99.90
24676;DHT22;12799;53.690;10.114;2022-12-18T02:38:51;-5.40;99.90
24676;DHT22;12799;53.690;10.114;2022-12-18T02:40:54;-5.30;99.90
24676;DHT22;12799;53.690;10.114;2022-12-18T02:43:07;-5.30;99.90
24676;DHT22;12799;53.690;10.114;2022-12-18T02:45:10;-5.40;99.90
24676;DHT22;12799;53.690;10.114;2022-12-18T02:47:12;-5.40;99.90
24676;DHT22;12799;53.690;10.114;2022-12-18T02:49:26;-5.40;99.90
24676;DHT22;12799;53.690;10.114;2022-12-18T02:51:39;-5.50;99.90
24676;DHT22;12799;53.690;10.114;2022-12-18T02:53:47;-5.40;99.90
24676;DHT22;12799;53.690;10.114;2022-12-18T02:55:58;-5.40;99.90
24676;DHT22;12799;53.690;10.114;2022-12-18T02:58:12;-5.50;99.90
24676;DHT22;12799;53.690;10.114;2022-12-18T03:00:19;-5.50;99.90
24676;DHT22;12799;53.690;10.114;2022-12-18T03:02:25;-5.40;99.90
24676;DHT22;12799;53.690;10.114;2022-12-18T03:04:32;-5.50;99.90
24676;DHT22;12799;53.690;10.114;2022-12-18T03:06:39;-5.50;99.90
24676;DHT22;12799;53.690;10.114;2022-12-18T03:08:45;-5.50;99.90
24676;DHT22;12799;53.690;10.114;2022-12-18T03:10:53;-5.50;99.90
24676;DHT22;12799;53.690;10.114;2022-12-18T03:13:02;-5.40;99.90
24676;DHT22;12799;53.690;10.114;2022-12-18T03:15:10;-5.50;99.90
24676;DHT22;12799;53.690;10.114;2022-12-18T03:17:16;-5.50;99.90
24676;DHT22;12799;53.690;10.114;2022-12-18T03:19:22;-5.60;99.90
24676;DHT22;12799;53.690;10.114;2022-12-18T03:21:29;-5.60;99.90
24676;DHT22;12799;53.690;10.114;2022-12-18T03:23:36;-5.70;99.90
24676;DHT22;12799;53.690;10.114;2022-12-18T03:25:43;-5.70;99.90
24676;DHT22;12799;53.690;10.114;2022-12-18T03:27:49;-5.70;99.90
24676;DHT22;12799;53.690;10.114;2022-12-18T03:29:59;-5.60;99.90
24676;DHT22;12799;53.690;10.114;2022-12-18T03:32:11;-5.70;99.90
24676;DHT22;12799;53.690;10.114;2022-12-18T03:34:16;-5.70;99.90
24676;DHT22;12799;53.690;10.114;2022-12-18T03:36:21;-5.70;99.90
24676;DHT22;12799;53.690;10.114;2022-12-18T03:38:24;-5.70;99.90
24676;DHT22;12799;53.690;10.114;2022-12-18T03:40:35;-5.70;99.90
24676;DHT22;12799;53.690;10.114;2022-12-18T03:42:46;-5.80;99.90
24676;DHT22;12799;53.690;10.114;2022-12-18T03:44:54;-5.80;99.90
24676;DHT22;12799;53.690;10.114;2022-12-18T03:47:02;-5.80;99.90
24676;DHT22;12799;53.690;10.114;2022-12-18T03:49:12;-5.80;99.90
24676;DHT22;12799;53.690;10.114;2022-12-18T03:51:22;-5.70;99.90
24676;DHT22;12799;53.690;10.114;2022-12-18T03:53:32;-5.80;99.90
24676;DHT22;12799;53.690;10.114;2022-12-18T03:55:36;-5.70;99.90
24676;DHT22;12799;53.690;10.114;2022-12-18T03:57:39;-5.80;99.90
24676;DHT22;12799;53.690;10.114;2022-12-18T03:59:44;-5.60;99.90
24676;DHT22;12799;53.690;10.114;2022-12-18T04:01:49;-5.80;99.90
24676;DHT22;12799;53.690;10.114;2022-12-18T04:03:54;-5.80;99.90
24676;DHT22;12799;53.690;10.114;2022-12-18T04:06:00;-5.70;99.90
24676;DHT22;12799;53.690;10.114;2022-12-18T04:08:03;-5.80;99.90
24676;DHT22;12799;53.690;10.114;2022-12-18T04:10:07;-5.80;99.90
24676;DHT22;12799;53.690;10.114;2022-12-18T04:12:10;-5.80;99.90
24676;DHT22;12799;53.690;10.114;2022-12-18T04:14:12;-5.80;99.90
24676;DHT22;12799;53.690;10.114;2022-12-18T04:16:14;-5.80;99.90
24676;DHT22;12799;53.690;10.114;2022-12-18T04:18:16;-5.80;99.90
24676;DHT22;12799;53.690;10.114;2022-12-18T04:20:18;-5.90;99.90
24676;DHT22;12799;53.690;10.114;2022-12-18T04:22:21;-5.90;99.90
24676;DHT22;12799;53.690;10.114;2022-12-18T04:24:23;-5.90;99.90
24676;DHT22;12799;53.690;10.114;2022-12-18T04:26:26;-5.90;99.90
24676;DHT22;12799;53.690;10.114;2022-12-18T04:28:28;-5.90;99.90
24676;DHT22;12799;53.690;10.114;2022-12-18T04:30:29;-5.90;99.90
24676;DHT22;12799;53.690;10.114;2022-12-18T04:32:33;-5.90;99.90
24676;DHT22;12799;53.690;10.114;2022-12-18T04:34:35;-5.90;99.90
24676;DHT22;12799;53.690;10.114;2022-12-18T04:36:37;-6.00;99.90
24676;DHT22;12799;53.690;10.114;2022-12-18T04:38:40;-6.00;99.90
24676;DHT22;12799;53.690;10.114;2022-12-18T04:40:43;-6.00;99.90
24676;DHT22;12799;53.690;10.114;2022-12-18T04:42:45;-6.00;99.90
24676;DHT22;12799;53.690;10.114;2022-12-18T04:44:47;-6.00;99.90
24676;DHT22;12799;53.690;10.114;2022-12-18T04:46:49;-6.00;99.90
24676;DHT22;12799;53.690;10.114;2022-12-18T04:48:51;-6.10;99.90
24676;DHT22;12799;53.690;10.114;2022-12-18T04:50:53;-5.90;99.90
24676;DHT22;12799;53.690;10.114;2022-12-18T04:52:55;-6.10;99.90
24676;DHT22;12799;53.690;10.114;2022-12-18T04:54:59;-6.00;99.90
24676;DHT22;12799;53.690;10.114;2022-12-18T04:57:01;-5.90;99.90
24676;DHT22;12799;53.690;10.114;2022-12-18T04:59:03;-6.00;99.90
24676;DHT22;12799;53.690;10.114;2022-12-18T05:01:05;-6.10;99.90
24676;DHT22;12799;53.690;10.114;2022-12-18T05:03:08;-6.10;99.90
24676;DHT22;12799;53.690;10.114;2022-12-18T05:05:10;-6.10;99.90
24676;DHT22;12799;53.690;10.114;2022-12-18T05:07:12;-6.10;99.90
24676;DHT22;12799;53.690;10.114;2022-12-18T05:09:14;-6.10;99.90
24676;DHT22;12799;53.690;10.114;2022-12-18T05:11:18;-6.10;99.90
24676;DHT22;12799;53.690;10.114;2022-12-18T05:13:20;-6.20;99.90
24676;DHT22;12799;53.690;10.114;2022-12-18T05:15:22;-6.10;99.90
24676;DHT22;12799;53.690;10.114;2022-12-18T05:17:23;-6.00;99.90
24676;DHT22;12799;53.690;10.114;2022-12-18T05:19:25;-6.20;99.90
24676;DHT22;12799;53.690;10.114;2022-12-18T05:21:27;-6.10;99.90
24676;DHT22;12799;53.690;10.114;2022-12-18T05:23:29;-6.10;99.90
24676;DHT22;12799;53.690;10.114;2022-12-18T05:25:31;-6.10;99.90
24676;DHT22;12799;53.690;10.114;2022-12-18T05:27:34;-6.20;99.90
24676;DHT22;12799;53.690;10.114;2022-12-18T05:29:36;-6.20;99.90
24676;DHT22;12799;53.690;10.114;2022-12-18T05:31:38;-6.20;99.90
24676;DHT22;12799;53.690;10.114;2022-12-18T05:33:41;-6.20;99.90
24676;DHT22;12799;53.690;10.114;2022-12-18T05:35:43;-6.30;99.90
24676;DHT22;12799;53.690;10.114;2022-12-18T05:37:45;-6.30;99.90
24676;DHT22;12799;53.690;10.114;2022-12-18T05:39:47;-6.20;99.90
24676;DHT22;12799;53.690;10.114;2022-12-18T05:41:49;-6.30;99.90
24676;DHT22;12799;53.690;10.114;2022-12-18T05:43:52;-6.30;99.90
24676;DHT22;12799;53.690;10.114;2022-12-18T05:45:54;-6.10;99.90
24676;DHT22;12799;53.690;10.114;2022-12-18T05:47:56;-6.10;99.90
24676;DHT22;12799;53.690;10.114;2022-12-18T05:49:58;-6.30;99.90
24676;DHT22;12799;53.690;10.114;2022-12-18T05:52:00;-6.30;99.90
24676;DHT22;12799;53.690;10.114;2022-12-18T05:54:02;-6.30;99.90
24676;DHT22;12799;53.690;10.114;2022-12-18T05:56:06;-6.30;99.90
24676;DHT22;12799;53.690;10.114;2022-12-18T05:58:10;-6.30;99.90
24676;DHT22;12799;53.690;10.114;2022-12-18T06:00:14;-6.40;99.90
24676;DHT22;12799;53.690;10.114;2022-12-18T06:02:17;-6.30;99.90
24676;DHT22;12799;53.690;10.114;2022-12-18T06:04:21;-6.40;99.90
24676;DHT22;12799;53.690;10.114;2022-12-18T06:06:24;-6.40;99.90
24676;DHT22;12799;53.690;10.114;2022-12-18T06:08:26;-6.40;99.90
24676;DHT22;12799;53.690;10.114;2022-12-18T06:10:28;-6.40;99.90
24676;DHT22;12799;53.690;10.114;2022-12-18T06:12:30;-6.50;99.90
24676;DHT22;12799;53.690;10.114;2022-12-18T06:14:34;-6.40;99.90
24676;DHT22;12799;53.690;10.114;2022-12-18T06:16:37;-6.50;99.90
24676;DHT22;12799;53.690;10.114;2022-12-18T06:18:39;-6.50;99.90
24676;DHT22;12799;53.690;10.114;2022-12-18T06:20:41;-6.50;99.90
24676;DHT22;12799;53.690;10.114;2022-12-18T06:22:43;-6.50;99.90
24676;DHT22;12799;53.690;10.114;2022-12-18T06:24:45;-6.50;99.90
24676;DHT22;12799;53.690;10.114;2022-12-18T06:26:47;-6.50;99.90
24676;DHT22;12799;53.690;10.114;2022-12-18T06:28:49;-6.50;99.90
24676;DHT22;12799;53.690;10.114;2022-12-18T06:30:51;-6.50;99.90
24676;DHT22;12799;53.690;10.114;2022-12-18T06:32:55;-6.50;99.90
24676;DHT22;12799;53.690;10.114;2022-12-18T06:34:57;-6.50;99.90
24676;DHT22;12799;53.690;10.114;2022-12-18T06:36:59;-6.50;99.90
24676;DHT22;12799;53.690;10.114;2022-12-18T06:39:01;-6.50;99.90
24676;DHT22;12799;53.690;10.114;2022-12-18T06:41:06;-6.50;99.90
24676;DHT22;12799;53.690;10.114;2022-12-18T06:43:08;-6.50;99.90
24676;DHT22;12799;53.690;10.114;2022-12-18T06:45:11;-6.60;99.90
24676;DHT22;12799;53.690;10.114;2022-12-18T06:47:13;-6.50;99.90
24676;DHT22;12799;53.690;10.114;2022-12-18T06:49:16;-6.60;99.90
24676;DHT22;12799;53.690;10.114;2022-12-18T06:51:19;-6.60;99.90
24676;DHT22;12799;53.690;10.114;2022-12-18T06:53:22;-6.50;99.90
24676;DHT22;12799;53.690;10.114;2022-12-18T06:55:24;-6.60;99.90
24676;DHT22;12799;53.690;10.114;2022-12-18T06:57:26;-6.60;99.90
24676;DHT22;12799;53.690;10.114;2022-12-18T06:59:28;-6.50;99.90
24676;DHT22;12799;53.690;10.114;2022-12-18T07:01:30;-6.60;99.90
24676;DHT22;12799;53.690;10.114;2022-12-18T07:03:33;-6.60;99.90
24676;DHT22;12799;53.690;10.114;2022-12-18T07:05:39;-6.60;99.90
24676;DHT22;12799;53.690;10.114;2022-12-18T07:07:42;-6.60;99.90
24676;DHT22;12799;53.690;10.114;2022-12-18T07:09:44;-6.50;99.90
24676;DHT22;12799;53.690;10.114;2022-12-18T07:11:46;-6.40;99.90
24676;DHT22;12799;53.690;10.114;2022-12-18T07:13:48;-6.50;99.90
24676;DHT22;12799;53.690;10.114;2022-12-18T07:15:50;-6.60;99.90
24676;DHT22;12799;53.690;10.114;2022-12-18T07:17:52;-6.60;99.90
24676;DHT22;12799;53.690;10.114;2022-12-18T07:19:54;-6.60;99.90
24676;DHT22;12799;53.690;10.114;2022-12-18T07:21:58;-6.60;99.90
24676;DHT22;12799;53.690;10.114;2022-12-18T07:24:00;-6.60;99.90
24676;DHT22;12799;53.690;10.114;2022-12-18T07:26:03;-6.60;99.90
24676;DHT22;12799;53.690;10.114;2022-12-18T07:28:05;-6.40;99.90
24676;DHT22;12799;53.690;10.114;2022-12-18T07:30:08;-6.60;99.90
24676;DHT22;12799;53.690;10.114;2022-12-18T07:32:11;-6.60;99.90
24676;DHT22;12799;53.690;10.114;2022-12-18T07:34:13;-6.60;99.90
24676;DHT22;12799;53.690;10.114;2022-12-18T07:36:16;-6.60;99.90
24676;DHT22;12799;53.690;10.114;2022-12-18T07:38:20;-6.60;99.90
24676;DHT22;12799;53.690;10.114;2022-12-18T07:40:22;-6.60;99.90
24676;DHT22;12799;53.690;10.114;2022-12-18T07:42:24;-6.50;99.90
24676;DHT22;12799;53.690;10.114;2022-12-18T07:44:35;-6.60;99.90
24676;DHT22;12799;53.690;10.114;2022-12-18T07:46:38;-6.60;99.90
24676;DHT22;12799;53.690;10.114;2022-12-18T07:48:40;-6.50;99.90
24676;DHT22;12799;53.690;10.114;2022-12-18T07:50:42;-6.60;99.90
24676;DHT22;12799;53.690;10.114;2022-12-18T07:52:44;-6.60;99.90
24676;DHT22;12799;53.690;10.114;2022-12-18T07:54:47;-6.60;99.90
24676;DHT22;12799;53.690;10.114;2022-12-18T07:56:51;-6.60;99.90
24676;DHT22;12799;53.690;10.114;2022-12-18T07:58:53;-6.60;99.90
24676;DHT22;12799;53.690;10.114;2022-12-18T08:01:03;-6.60;99.90
24676;DHT22;12799;53.690;10.114;2022-12-18T08:03:05;-6.40;99.90
24676;DHT22;12799;53.690;10.114;2022-12-18T08:05:08;-6.50;99.90
24676;DHT22;12799;53.690;10.114;2022-12-18T08:07:10;-6.50;99.90
24676;DHT22;12799;53.690;10.114;2022-12-18T08:09:12;-6.50;99.90
24676;DHT22;12799;53.690;10.114;2022-12-18T08:11:16;-6.40;99.90
24676;DHT22;12799;53.690;10.114;2022-12-18T08:13:18;-6.50;99.90
24676;DHT22;12799;53.690;10.114;2022-12-18T08:15:20;-6.50;99.90
24676;DHT22;12799;53.690;10.114;2022-12-18T08:17:22;-6.50;99.90
24676;DHT22;12799;53.690;10.114;2022-12-18T08:19:24;-6.50;99.90
24676;DHT22;12799;53.690;10.114;2022-12-18T08:21:29;-6.40;99.90
24676;DHT22;12799;53.690;10.114;2022-12-18T08:23:31;-6.40;99.90
24676;DHT22;12799;53.690;10.114;2022-12-18T08:25:34;-6.40;99.90
24676;DHT22;12799;53.690;10.114;2022-12-18T08:27:37;-6.30;99.90
24676;DHT22;12799;53.690;10.114;2022-12-18T08:29:39;-6.40;99.90
24676;DHT22;12799;53.690;10.114;2022-12-18T08:31:41;-6.40;99.90
24676;DHT22;12799;53.690;10.114;2022-12-18T08:33:43;-6.20;99.90
24676;DHT22;12799;53.690;10.114;2022-12-18T08:35:45;-6.20;99.90
24676;DHT22;12799;53.690;10.114;2022-12-18T08:37:48;-6.30;99.90
24676;DHT22;12799;53.690;10.114;2022-12-18T08:39:52;-6.20;99.90
24676;DHT22;12799;53.690;10.114;2022-12-18T08:41:54;-6.10;99.90
24676;DHT22;12799;53.690;10.114;2022-12-18T08:44:15;-6.20;99.90
24676;DHT22;12799;53.690;10.114;2022-12-18T08:46:46;-6.10;99.90
24676;DHT22;12799;53.690;10.114;2022-12-18T08:48:49;-6.10;99.90
24676;DHT22;12799;53.690;10.114;2022-12-18T08:50:55;-5.90;99.90
24676;DHT22;12799;53.690;10.114;2022-12-18T08:52:57;-6.00;99.90
24676;DHT22;12799;53.690;10.114;2022-12-18T08:54:59;-6.00;99.90
24676;DHT22;12799;53.690;10.114;2022-12-18T08:57:01;-5.90;99.90
24676;DHT22;12799;53.690;10.114;2022-12-18T08:59:04;-5.90;99.90
24676;DHT22;12799;53.690;10.114;2022-12-18T09:01:08;-5.90;99.90
24676;DHT22;12799;53.690;10.114;2022-12-18T09:03:12;-5.80;99.90
24676;DHT22;12799;53.690;10.114;2022-12-18T09:05:14;-5.90;99.90
24676;DHT22;12799;53.690;10.114;2022-12-18T09:07:16;-5.80;99.90
24676;DHT22;12799;53.690;10.114;2022-12-18T09:09:18;-5.80;99.90
24676;DHT22;12799;53.690;10.114;2022-12-18T09:11:22;-5.70;99.90
24676;DHT22;12799;53.690;10.114;2022-12-18T09:13:24;-5.70;99.90
24676;DHT22;12799;53.690;10.114;2022-12-18T09:15:26;-5.70;99.90
24676;DHT22;12799;53.690;10.114;2022-12-18T09:17:30;-5.60;99.90
24676;DHT22;12799;53.690;10.114;2022-12-18T09:19:32;-5.60;99.90
24676;DHT22;12799;53.690;10.114;2022-12-18T09:21:38;-5.40;99.90
24676;DHT22;12799;53.690;10.114;2022-12-18T09:23:40;-5.50;99.90
24676;DHT22;12799;53.690;10.114;2022-12-18T09:25:43;-5.30;99.90
24676;DHT22;12799;53.690;10.114;2022-12-18T09:27:47;-5.40;99.90
24676;DHT22;12799;53.690;10.114;2022-12-18T09:29:49;-5.40;99.90
24676;DHT22;12799;53.690;10.114;2022-12-18T09:31:51;-5.30;99.90
24676;DHT22;12799;53.690;10.114;2022-12-18T09:33:56;-5.10;99.90
24676;DHT22;12799;53.690;10.114;2022-12-18T09:36:01;-5.10;99.90
24676;DHT22;12799;53.690;10.114;2022-12-18T09:38:03;-5.00;99.90
24676;DHT22;12799;53.690;10.114;2022-12-18T09:40:09;-5.20;99.90
24676;DHT22;12799;53.690;10.114;2022-12-18T09:42:19;-5.00;99.90
24676;DHT22;12799;53.690;10.114;2022-12-18T09:44:25;-5.00;99.90
24676;DHT22;12799;53.690;10.114;2022-12-18T09:46:33;-5.00;99.90
24676;DHT22;12799;53.690;10.114;2022-12-18T09:48:39;-4.80;99.90
24676;DHT22;12799;53.690;10.114;2022-12-18T09:50:44;-4.80;99.90
24676;DHT22;12799;53.690;10.114;2022-12-18T09:52:50;-4.60;99.90
24676;DHT22;12799;53.690;10.114;2022-12-18T09:54:58;-4.70;99.90
24676;DHT22;12799;53.690;10.114;2022-12-18T09:57:02;-4.70;99.90
24676;DHT22;12799;53.690;10.114;2022-12-18T09:59:04;-4.70;99.90
24676;DHT22;12799;53.690;10.114;2022-12-18T10:01:10;-4.60;99.90
24676;DHT22;12799;53.690;10.114;2022-12-18T10:03:13;-4.60;99.90
24676;DHT22;12799;53.690;10.114;2022-12-18T10:05:19;-4.40;99.90
24676;DHT22;12799;53.690;10.114;2022-12-18T10:07:30;-4.50;99.90
24676;DHT22;12799;53.690;10.114;2022-12-18T10:09:37;-4.40;99.90
24676;DHT22;12799;53.690;10.114;2022-12-18T10:11:46;-4.40;99.90
24676;DHT22;12799;53.690;10.114;2022-12-18T10:13:53;-4.40;99.90
24676;DHT22;12799;53.690;10.114;2022-12-18T10:16:05;-4.20;99.90
24676;DHT22;12799;53.690;10.114;2022-12-18T10:18:19;-4.20;99.90
24676;DHT22;12799;53.690;10.114;2022-12-18T10:20:29;-4.20;99.90
24676;DHT22;12799;53.690;10.114;2022-12-18T10:22:44;-4.10;99.90
24676;DHT22;12799;53.690;10.114;2022-12-18T10:24:53;-4.10;99.90
24676;DHT22;12799;53.690;10.114;2022-12-18T10:27:00;-4.00;99.90
24676;DHT22;12799;53.690;10.114;2022-12-18T10:29:11;-4.00;99.90
24676;DHT22;12799;53.690;10.114;2022-12-18T10:31:16;-3.90;99.90
24676;DHT22;12799;53.690;10.114;2022-12-18T10:33:21;-3.70;99.90
24676;DHT22;12799;53.690;10.114;2022-12-18T10:35:25;-3.80;99.90
24676;DHT22;12799;53.690;10.114;2022-12-18T10:37:29;-3.80;99.90
24676;DHT22;12799;53.690;10.114;2022-12-18T10:39:32;-3.70;99.90
24676;DHT22;12799;53.690;10.114;2022-12-18T10:41:34;-3.70;99.90
24676;DHT22;12799;53.690;10.114;2022-12-18T10:43:38;-3.60;99.90
24676;DHT22;12799;53.690;10.114;2022-12-18T10:45:40;-3.60;99.90
24676;DHT22;12799;53.690;10.114;2022-12-18T10:47:43;-3.50;99.90
24676;DHT22;12799;53.690;10.114;2022-12-18T10:49:49;-3.40;99.90
24676;DHT22;12799;53.690;10.114;2022-12-18T10:52:04;-3.30;99.90
24676;DHT22;12799;53.690;10.114;2022-12-18T10:54:15;-3.40;99.90
24676;DHT22;12799;53.690;10.114;2022-12-18T10:56:20;-3.30;99.90
24676;DHT22;12799;53.690;10.114;2022-12-18T10:58:27;-3.10;99.90
24676;DHT22;12799;53.690;10.114;2022-12-18T11:00:30;-3.20;99.90
24676;DHT22;12799;53.690;10.114;2022-12-18T11:02:34;-3.10;99.90
24676;DHT22;12799;53.690;10.114;2022-12-18T11:04:50;-3.00;99.90
24676;DHT22;12799;53.690;10.114;2022-12-18T11:06:55;-3.00;99.90
24676;DHT22;12799;53.690;10.114;2022-12-18T11:08:59;-2.90;99.90
24676;DHT22;12799;53.690;10.114;2022-12-18T11:11:02;-2.80;99.90
24676;DHT22;12799;53.690;10.114;2022-12-18T11:13:18;-2.70;99.90
24676;DHT22;12799;53.690;10.114;2022-12-18T11:15:23;-2.70;99.90
24676;DHT22;12799;53.690;10.114;2022-12-18T11:17:30;-2.60;99.90
24676;DHT22;12799;53.690;10.114;2022-12-18T11:19:34;-2.50;99.90
24676;DHT22;12799;53.690;10.114;2022-12-18T11:21:39;-2.50;99.90
24676;DHT22;12799;53.690;10.114;2022-12-18T11:23:47;-2.50;99.90
24676;DHT22;12799;53.690;10.114;2022-12-18T11:25:55;-2.50;99.90
24676;DHT22;12799;53.690;10.114;2022-12-18T11:28:00;-2.40;99.90
24676;DHT22;12799;53.690;10.114;2022-12-18T11:30:21;-2.30;99.90
24676;DHT22;12799;53.690;10.114;2022-12-18T11:32:34;-2.30;99.90
24676;DHT22;12799;53.690;10.114;2022-12-18T11:34:37;-2.30;99.90
24676;DHT22;12799;53.690;10.114;2022-12-18T11:36:43;-2.20;99.90
24676;DHT22;12799;53.690;10.114;2022-12-18T11:38:47;-2.20;99.90
24676;DHT22;12799;53.690;10.114;2022-12-18T11:40:55;-2.10;99.90
24676;DHT22;12799;53.690;10.114;2022-12-18T11:43:04;-2.10;99.90
24676;DHT22;12799;53.690;10.114;2022-12-18T11:45:28;-2.10;99.90
24676;DHT22;12799;53.690;10.114;2022-12-18T11:47:38;-2.10;99.90
24676;DHT22;12799;53.690;10.114;2022-12-18T11:49:42;-2.00;99.90
24676;DHT22;12799;53.690;10.114;2022-12-18T11:51:48;-2.00;99.90
24676;DHT22;12799;53.690;10.114;2022-12-18T11:53:52;-1.90;99.90
24676;DHT22;12799;53.690;10.114;2022-12-18T11:56:04;-1.90;99.90
24676;DHT22;12799;53.690;10.114;2022-12-18T11:58:13;-1.90;99.90
24676;DHT22;12799;53.690;10.114;2022-12-18T12:00:21;-1.80;99.90
24676;DHT22;12799;53.690;10.114;2022-12-18T12:02:38;-1.80;99.90
24676;DHT22;12799;53.690;10.114;2022-12-18T12:04:59;-1.70;99.90
24676;DHT22;12799;53.690;10.114;2022-12-18T14:14:57;-1.50;99.90
24676;DHT22;12799;53.690;10.114;2022-12-18T14:20:36;-1.60;99.90
24676;DHT22;12799;53.690;10.114;2022-12-18T14:54:47;-1.90;99.90
24676;DHT22;12799;53.690;10.114;2022-12-18T14:56:59;-1.90;99.90
24676;DHT22;12799;53.690;10.114;2022-12-18T14:59:23;-1.90;99.90
24676;DHT22;12799;53.690;10.114;2022-12-18T15:01:53;-2.00;99.90
24676;DHT22;12799;53.690;10.114;2022-12-18T15:10:33;-2.20;99.90
24676;DHT22;12799;53.690;10.114;2022-12-18T15:13:20;-2.10;99.90
24676;DHT22;12799;53.690;10.114;2022-12-18T15:15:50;-2.20;99.90
24676;DHT22;12799;53.690;10.114;2022-12-18T15:18:53;-2.20;99.90
24676;DHT22;12799;53.690;10.114;2022-12-18T15:21:30;-2.20;99.90
24676;DHT22;12799;53.690;10.114;2022-12-18T15:24:18;-2.30;99.90
24676;DHT22;12799;53.690;10.114;2022-12-18T15:53:24;-2.70;99.90
24676;DHT22;12799;53.690;10.114;2022-12-18T15:55:27;-2.70;99.90
24676;DHT22;12799;53.690;10.114;2022-12-18T15:57:47;-2.70;99.90
24676;DHT22;12799;53.690;10.114;2022-12-18T15:59:49;-2.80;99.90
24676;DHT22;12799;53.690;10.114;2022-12-18T16:01:53;-2.80;99.90
24676;DHT22;12799;53.690;10.114;2022-12-18T16:03:55;-2.80;99.90
24676;DHT22;12799;53.690;10.114;2022-12-18T16:05:57;-2.80;99.90
24676;DHT22;12799;53.690;10.114;2022-12-18T16:08:02;-2.70;99.90
24676;DHT22;12799;53.690;10.114;2022-12-18T16:10:07;-2.80;99.90
24676;DHT22;12799;53.690;10.114;2022-12-18T16:12:15;-2.80;99.90
24676;DHT22;12799;53.690;10.114;2022-12-18T16:14:21;-2.70;99.90
24676;DHT22;12799;53.690;10.114;2022-12-18T16:16:30;-2.70;99.90
24676;DHT22;12799;53.690;10.114;2022-12-18T16:18:32;-2.70;99.90
24676;DHT22;12799;53.690;10.114;2022-12-18T16:20:34;-2.70;99.90
24676;DHT22;12799;53.690;10.114;2022-12-18T16:22:36;-2.70;99.90
24676;DHT22;12799;53.690;10.114;2022-12-18T16:24:38;-2.50;99.90
24676;DHT22;12799;53.690;10.114;2022-12-18T16:26:42;-2.60;99.90
24676;DHT22;12799;53.690;10.114;2022-12-18T16:28:44;-2.80;99.90
24676;DHT22;12799;53.690;10.114;2022-12-18T16:30:46;-2.80;99.90
24676;DHT22;12799;53.690;10.114;2022-12-18T16:32:48;-2.70;99.90
24676;DHT22;12799;53.690;10.114;2022-12-18T16:34:50;-2.90;99.90
24676;DHT22;12799;53.690;10.114;2022-12-18T16:36:53;-2.90;99.90
24676;DHT22;12799;53.690;10.114;2022-12-18T16:38:55;-2.90;99.90
24676;DHT22;12799;53.690;10.114;2022-12-18T16:40:57;-2.80;99.90
24676;DHT22;12799;53.690;10.114;2022-12-18T16:43:18;-3.00;99.90
24676;DHT22;12799;53.690;10.114;2022-12-18T16:45:20;-2.90;99.90
24676;DHT22;12799;53.690;10.114;2022-12-18T16:47:22;-3.00;99.90
24676;DHT22;12799;53.690;10.114;2022-12-18T16:49:24;-3.00;99.90
24676;DHT22;12799;53.690;10.114;2022-12-18T16:51:27;-2.80;99.90
24676;DHT22;12799;53.690;10.114;2022-12-18T16:53:29;-2.90;99.90
24676;DHT22;12799;53.690;10.114;2022-12-18T16:55:31;-3.00;99.90
24676;DHT22;12799;53.690;10.114;2022-12-18T16:57:33;-3.00;99.90
24676;DHT22;12799;53.690;10.114;2022-12-18T16:59:37;-3.00;99.90
24676;DHT22;12799;53.690;10.114;2022-12-18T17:01:39;-3.00;99.90
24676;DHT22;12799;53.690;10.114;2022-12-18T17:03:41;-3.00;99.90
24676;DHT22;12799;53.690;10.114;2022-12-18T17:05:43;-3.00;99.90
24676;DHT22;12799;53.690;10.114;2022-12-18T17:07:45;-2.90;99.90
24676;DHT22;12799;53.690;10.114;2022-12-18T17:09:47;-3.00;99.90
24676;DHT22;12799;53.690;10.114;2022-12-18T17:11:51;-3.00;99.90
24676;DHT22;12799;53.690;10.114;2022-12-18T17:13:53;-3.10;99.90
24676;DHT22;12799;53.690;10.114;2022-12-18T17:16:01;-2.90;99.90
24676;DHT22;12799;53.690;10.114;2022-12-18T17:18:03;-3.00;99.90
24676;DHT22;12799;53.690;10.114;2022-12-18T17:20:06;-3.00;99.90
24676;DHT22;12799;53.690;10.114;2022-12-18T17:22:08;-3.00;99.90
24676;DHT22;12799;53.690;10.114;2022-12-18T17:24:10;-3.00;99.90
24676;DHT22;12799;53.690;10.114;2022-12-18T17:26:13;-3.00;99.90
24676;DHT22;12799;53.690;10.114;2022-12-18T17:28:15;-3.00;99.90
24676;DHT22;12799;53.690;10.114;2022-12-18T17:30:17;-3.00;99.90
24676;DHT22;12799;53.690;10.114;2022-12-18T17:32:20;-3.00;99.90
24676;DHT22;12799;53.690;10.114;2022-12-18T17:34:22;-2.90;99.90
24676;DHT22;12799;53.690;10.114;2022-12-18T17:36:24;-3.00;99.90
24676;DHT22;12799;53.690;10.114;2022-12-18T17:38:30;-2.90;99.90
24676;DHT22;12799;53.690;10.114;2022-12-18T17:40:32;-3.00;99.90
24676;DHT22;12799;53.690;10.114;2022-12-18T17:42:34;-3.00;99.90
24676;DHT22;12799;53.690;10.114;2022-12-18T17:44:37;-2.90;99.90
24676;DHT22;12799;53.690;10.114;2022-12-18T17:46:39;-3.00;99.90
24676;DHT22;12799;53.690;10.114;2022-12-18T17:48:42;-3.00;99.90
24676;DHT22;12799;53.690;10.114;2022-12-18T17:50:44;-3.00;99.90
24676;DHT22;12799;53.690;10.114;2022-12-18T17:52:46;-3.00;99.90
24676;DHT22;12799;53.690;10.114;2022-12-18T17:54:48;-2.90;99.90
24676;DHT22;12799;53.690;10.114;2022-12-18T17:56:50;-3.00;99.90
24676;DHT22;12799;53.690;10.114;2022-12-18T17:58:52;-3.00;99.90
24676;DHT22;12799;53.690;10.114;2022-12-18T18:00:55;-2.90;99.90